Time;durP1;ratioP1;P1;durP2;ratioP2;P2;SDS_P1;SDS_P2;PMS_P1;PMS_P2;Temp;Humidity;BMP_temperature;BMP_pressure;BME280_temperature;BME280_humidity;BME280_pressure;Samples;Min_cycle;Max_cycle;Signal;HPM_P1;HPM_P2
2022/03/01 00:01:21;;;;;;;;;60.50;49.00;;;;;6.24;54.14;102447.06;5030795;28;50039;-66
2022/03/01 00:03:46;;;;;;;;;62.75;48.75;;;;;6.67;53.80;102535.97;5030778;28;50037;-66
2022/03/01 00:06:11;;;;;;;;;60.00;50.00;;;;;6.64;53.92;102525.28;5030931;28;49929;-66
2022/03/01 00:08:37;;;;;;;;;58.50;49.25;;;;;6.59;53.58;102531.13;5030516;28;50516;-67
2022/03/01 00:11:02;;;;;;;;;61.50;50.25;;;;;6.57;53.88;102527.53;5030917;28;49796;-66
2022/03/01 00:13:28;;;;;;;;;57.25;44.50;;;;;6.53;54.15;102528.13;5030949;28;49716;-66
2022/03/01 00:15:53;;;;;;;;;56.00;46.00;;;;;6.28;54.15;102483.91;5030882;28;49911;-66
2022/03/01 00:18:19;;;;;;;;;59.00;48.00;;;;;6.47;54.12;102519.00;5030462;28;49804;-66
2022/03/01 00:20:44;;;;;;;;;61.50;49.75;;;;;6.27;54.20;102496.81;5030478;28;49919;-66
2022/03/01 00:23:09;;;;;;;;;63.50;51.50;;;;;6.03;54.56;102463.13;5030426;28;49696;-66
2022/03/01 00:25:35;;;;;;;;;62.50;48.00;;;;;6.25;54.46;102494.09;5030466;28;49718;-66
2022/03/01 00:28:00;;;;;;;;;62.75;47.50;;;;;6.29;55.09;102492.63;5029350;28;50369;-66
2022/03/01 00:30:25;;;;;;;;;54.75;46.00;;;;;6.36;54.48;102515.66;5030482;28;49808;-67
2022/03/01 00:32:51;;;;;;;;;65.00;49.50;;;;;6.19;54.78;102485.00;5030305;28;49702;-67
2022/03/01 00:35:17;;;;;;;;;60.50;49.75;;;;;5.67;55.28;102393.78;5030527;28;49758;-67
2022/03/01 00:37:42;;;;;;;;;66.50;49.25;;;;;5.97;55.37;102448.75;5029995;28;50249;-67
2022/03/01 00:40:08;;;;;;;;;61.75;49.50;;;;;6.27;55.32;102509.84;5029711;28;49815;-67
2022/03/01 00:42:34;;;;;;;;;61.00;48.50;;;;;5.99;55.52;102473.25;5030374;28;49793;-66
2022/03/01 00:44:59;;;;;;;;;57.75;46.00;;;;;6.22;54.99;102509.56;5012702;28;49543;-66
2022/03/01 00:47:24;;;;;;;;;64.75;50.75;;;;;5.97;54.72;102477.44;5030341;28;50771;-67
2022/03/01 00:49:50;;;;;;;;;62.50;49.25;;;;;5.68;55.64;102423.34;5030156;28;49789;-67
2022/03/01 00:52:15;;;;;;;;;64.00;47.75;;;;;5.94;55.48;102465.09;5030055;28;50159;-67
2022/03/01 00:54:40;;;;;;;;;69.25;53.00;;;;;5.86;55.13;102455.84;5030371;28;49883;-67
2022/03/01 00:57:06;;;;;;;;;58.25;47.50;;;;;6.26;55.05;102518.47;5029908;28;49816;-67
2022/03/01 00:59:31;;;;;;;;;62.50;52.50;;;;;6.16;55.33;102509.13;5030120;28;49792;-66
2022/03/01 01:01:56;;;;;;;;;62.50;49.75;;;;;6.29;54.99;102521.31;5030445;28;49968;-66
2022/03/01 01:04:22;;;;;;;;;67.75;52.25;;;;;6.20;55.26;102505.06;5030296;28;49610;-66
2022/03/01 01:06:47;;;;;;;;;65.00;51.00;;;;;6.26;55.53;102508.94;5029648;28;49632;-66
2022/03/01 01:09:14;;;;;;;;;65.25;49.25;;;;;6.17;55.23;102502.22;5029997;28;49706;-66
2022/03/01 01:11:41;;;;;;;;;61.25;49.25;;;;;6.24;55.59;102513.16;5029976;28;49791;-67
2022/03/01 01:14:06;;;;;;;;;70.25;53.25;;;;;6.23;55.36;102513.97;5029959;28;49832;-66
2022/03/01 01:16:31;;;;;;;;;62.50;52.00;;;;;6.17;55.39;102497.00;5029732;28;50622;-66
2022/03/01 01:18:57;;;;;;;;;66.25;52.25;;;;;6.23;55.25;102508.75;5029841;28;49648;-67
2022/03/01 01:21:22;;;;;;;;;64.00;52.75;;;;;6.24;55.68;102502.72;5030061;28;49968;-66
2022/03/01 01:23:48;;;;;;;;;73.00;53.25;;;;;6.14;55.29;102489.00;5029632;28;49851;-66
2022/03/01 01:26:13;;;;;;;;;60.00;47.75;;;;;6.18;55.37;102502.34;5029698;28;50623;-66
2022/03/01 01:28:38;;;;;;;;;70.00;51.50;;;;;6.09;55.85;102485.19;5029722;28;49852;-66
2022/03/01 01:31:04;;;;;;;;;68.75;54.00;;;;;5.93;55.38;102465.91;5029486;28;49905;-67
2022/03/01 01:33:30;;;;;;;;;66.75;51.50;;;;;6.13;55.37;102505.44;5029650;28;49693;-67
2022/03/01 01:35:55;;;;;;;;;62.75;51.75;;;;;5.84;55.95;102449.63;5029447;28;49813;-67
2022/03/01 01:38:20;;;;;;;;;65.75;52.75;;;;;5.87;55.52;102449.81;5029618;28;49693;-66
2022/03/01 01:40:46;;;;;;;;;69.50;54.25;;;;;6.15;55.92;102504.72;5029750;28;49713;-66
2022/03/01 01:43:11;;;;;;;;;66.25;53.50;;;;;6.11;55.70;102496.63;5029744;28;50092;-66
2022/03/01 01:45:37;;;;;;;;;64.50;51.75;;;;;6.16;56.30;102503.94;5029465;28;50595;-66
2022/03/01 01:48:03;;;;;;;;;66.75;54.50;;;;;6.16;56.03;102506.53;5029442;28;49640;-65
2022/03/01 01:50:33;;;;;;;;;67.50;54.75;;;;;6.07;56.49;102486.78;5029441;28;49637;-66
2022/03/01 01:52:59;;;;;;;;;66.25;49.75;;;;;5.84;56.72;102453.94;5032748;28;49642;-66
2022/03/01 01:55:26;;;;;;;;;62.75;51.25;;;;;5.93;55.80;102476.34;5032869;28;49731;-67
2022/03/01 01:57:52;;;;;;;;;68.25;54.25;;;;;5.65;56.00;102411.00;5032956;28;49946;-67
2022/03/01 02:00:18;;;;;;;;;63.50;51.00;;;;;6.16;55.88;102501.31;5033055;28;49707;-67
2022/03/01 02:02:44;;;;;;;;;64.00;50.50;;;;;6.02;55.98;102476.06;5032963;28;49657;-66
2022/03/01 02:05:10;;;;;;;;;66.50;54.75;;;;;6.16;55.89;102503.03;5032594;28;50549;-66
2022/03/01 02:07:36;;;;;;;;;72.75;52.00;;;;;6.13;56.44;102505.44;5032371;28;49926;-67
2022/03/01 02:10:02;;;;;;;;;63.75;49.75;;;;;6.15;56.19;102496.91;5032693;28;49916;-67
2022/03/01 02:12:27;;;;;;;;;63.75;51.75;;;;;6.13;56.34;102481.97;5032944;28;49915;-67
2022/03/01 02:14:53;;;;;;;;;67.50;54.75;;;;;6.15;56.13;102502.13;5032468;28;50248;-66
2022/03/01 02:17:19;;;;;;;;;70.00;52.00;;;;;6.21;55.96;102510.38;5031593;28;49674;-66
2022/03/01 02:19:49;;;;;;;;;69.00;52.50;;;;;6.09;56.12;102487.81;5032704;28;50222;-67
2022/03/01 02:22:14;;;;;;;;;68.75;55.00;;;;;6.21;55.96;102510.38;5032542;28;49709;-67
2022/03/01 02:24:39;;;;;;;;;69.25;56.50;;;;;6.16;55.94;102500.41;5032067;28;50665;-66
2022/03/01 02:27:05;;;;;;;;;64.33;50.33;;;;;6.24;56.37;102512.25;5032358;28;49652;-66
2022/03/01 02:29:31;;;;;;;;;68.50;54.50;;;;;6.23;56.39;102490.50;5032418;28;49948;-66
2022/03/01 02:32:00;;;;;;;;;71.75;56.50;;;;;6.28;55.55;102496.03;5031469;28;49922;-67
2022/03/01 02:34:25;;;;;;;;;65.75;54.00;;;;;6.29;55.82;102490.00;5032275;28;50729;-67
2022/03/01 02:36:51;;;;;;;;;70.00;54.75;;;;;6.31;55.75;102497.13;5032025;28;49832;-67
2022/03/01 02:39:17;;;;;;;;;71.00;57.25;;;;;6.29;55.91;102500.44;5032589;28;49775;-67
2022/03/01 02:41:44;;;;;;;;;79.50;57.75;;;;;5.90;55.82;102421.41;5032518;28;50069;-67
2022/03/01 02:44:11;;;;;;;;;62.75;50.25;;;;;6.30;55.62;102487.50;5031856;28;50870;-67
2022/03/01 02:46:37;;;;;;;;;66.50;51.75;;;;;6.35;55.69;102489.50;5025791;28;49751;-67
2022/03/01 02:49:04;;;;;;;;;63.75;47.00;;;;;6.39;55.87;102494.13;5032157;28;49654;-67
2022/03/01 02:51:29;;;;;;;;;66.50;51.50;;;;;6.14;55.80;102440.34;5032054;28;50461;-67
2022/03/01 02:53:55;;;;;;;;;65.75;55.50;;;;;6.20;55.31;102463.34;5031850;28;50659;-67
2022/03/01 02:56:21;;;;;;;;;71.50;53.75;;;;;6.30;55.28;102482.28;5032067;28;49594;-66
2022/03/01 02:58:47;;;;;;;;;67.00;54.25;;;;;6.33;55.67;102484.19;5031988;28;50006;-66
2022/03/01 03:01:12;;;;;;;;;68.25;53.50;;;;;6.30;55.60;102478.78;5014041;28;49738;-66
2022/03/01 03:03:38;;;;;;;;;62.75;49.50;;;;;6.30;55.84;102487.50;5031152;28;49718;-67
2022/03/01 03:06:04;;;;;;;;;65.75;50.75;;;;;6.10;55.31;102469.66;5031855;28;49737;-66
2022/03/01 03:08:30;;;;;;;;;60.75;50.25;;;;;6.26;55.93;102498.50;5031738;28;50093;-67
2022/03/01 03:10:56;;;;;;;;;73.33;57.33;;;;;6.15;56.41;102489.09;5032079;28;50202;-67
2022/03/01 03:13:21;;;;;;;;;67.67;56.00;;;;;6.25;56.36;102504.53;5031511;28;49880;-66
2022/03/01 03:15:47;;;;;;;;;68.25;56.00;;;;;6.21;56.85;102504.25;5031705;28;50007;-66
2022/03/01 03:18:14;;;;;;;;;63.50;51.00;;;;;6.15;56.52;102504.72;5031809;28;49719;-67
2022/03/01 03:20:39;;;;;;;;;72.33;55.33;;;;;6.16;56.58;102497.81;5013190;28;49835;-67
2022/03/01 03:23:05;;;;;;;;;68.25;53.00;;;;;5.63;56.85;102407.41;5031086;28;50291;-67
2022/03/01 03:25:31;;;;;;;;;69.25;54.50;;;;;6.08;56.52;102494.72;5031243;28;49774;-67
2022/03/01 03:27:56;;;;;;;;;63.25;50.00;;;;;6.08;56.55;102494.72;5031648;28;49681;-67
2022/03/01 03:30:22;;;;;;;;;67.33;50.33;;;;;6.07;56.60;102495.50;5014071;28;49988;-67
2022/03/01 03:32:47;;;;;;;;;70.00;57.00;;;;;5.98;56.32;102492.28;5031272;28;49808;-66
2022/03/01 03:35:12;;;;;;;;;72.50;55.75;;;;;5.77;56.95;102454.31;5012631;28;50139;-66
2022/03/01 03:37:38;;;;;;;;;64.75;52.25;;;;;6.00;57.75;102495.91;5031209;28;49912;-66
2022/03/01 03:40:04;;;;;;;;;61.33;52.33;;;;;5.23;57.19;102356.94;5031604;28;49964;-66
2022/03/01 03:42:29;;;;;;;;;63.00;48.75;;;;;5.81;57.62;102457.25;5030804;28;50360;-67
2022/03/01 03:44:55;;;;;;;;;75.00;57.25;;;;;5.80;57.59;102468.47;5031246;28;49833;-66
2022/03/01 03:47:20;;;;;;;;;69.00;56.33;;;;;5.78;57.48;102471.75;5031430;28;49863;-66
2022/03/01 03:49:47;;;;;;;;;68.75;54.50;;;;;5.92;57.30;102486.66;5031447;28;49681;-66
2022/03/01 03:52:12;;;;;;;;;67.50;56.25;;;;;5.73;57.22;102461.03;5030777;28;51864;-67
2022/03/01 03:54:38;;;;;;;;;71.25;56.50;;;;;5.86;57.56;102481.91;5030964;28;49961;-67
2022/03/01 03:57:08;;;;;;;;;73.25;57.00;;;;;5.87;57.07;102485.41;5031008;28;50207;-66
2022/03/01 03:59:37;;;;;;;;;70.25;51.75;;;;;5.77;57.43;102454.31;5031049;28;50112;-67
2022/03/01 04:02:04;;;;;;;;;62.75;51.00;;;;;5.69;57.33;102436.50;5030832;28;51096;-67
2022/03/01 04:04:30;;;;;;;;;65.25;51.25;;;;;5.92;56.98;102474.53;5030928;28;49817;-67
2022/03/01 04:06:55;;;;;;;;;62.75;51.50;;;;;5.88;57.13;102462.03;5030780;28;49594;-66
2022/03/01 04:09:20;;;;;;;;;63.25;53.00;;;;;5.58;57.41;102413.09;5031255;28;49621;-67
2022/03/01 04:11:46;;;;;;;;;66.25;52.25;;;;;5.67;57.18;102424.13;5030509;28;50753;-67
2022/03/01 04:14:11;;;;;;;;;62.25;52.50;;;;;5.94;57.12;102461.59;5029582;28;49744;-66
2022/03/01 04:16:38;;;;;;;;;58.00;49.75;;;;;5.77;56.86;102431.75;5012750;28;49790;-66
2022/03/01 04:19:03;;;;;;;;;66.00;54.25;;;;;5.93;57.33;102463.31;5030848;28;49751;-66
2022/03/01 04:21:29;;;;;;;;;68.25;55.50;;;;;5.86;57.04;102449.72;5030230;28;49763;-68
2022/03/01 04:23:54;;;;;;;;;65.50;55.25;;;;;6.03;56.90;102475.25;5030555;28;49730;-67
2022/03/01 04:26:20;;;;;;;;;67.50;57.00;;;;;5.53;57.04;102389.38;5030616;28;49911;-67
2022/03/01 04:28:45;;;;;;;;;62.67;51.67;;;;;6.07;56.92;102479.84;5030748;28;49944;-67
2022/03/01 04:31:11;;;;;;;;;67.67;52.00;;;;;6.07;56.57;102461.59;5030280;28;50462;-66
2022/03/01 04:33:37;;;;;;;;;71.00;54.25;;;;;6.00;56.52;102452.50;5030360;28;49944;-66
2022/03/01 04:36:03;;;;;;;;;68.50;55.75;;;;;6.14;56.99;102471.63;5030641;28;49816;-66
2022/03/01 04:38:29;;;;;;;;;64.25;51.75;;;;;5.94;57.03;102449.47;5029823;28;49736;-65
2022/03/01 04:40:55;;;;;;;;;69.00;57.00;;;;;6.17;57.05;102476.16;5030169;28;50799;-66
2022/03/01 04:43:21;;;;;;;;;63.25;51.00;;;;;6.21;57.35;102476.47;5030493;28;50131;-66
2022/03/01 04:45:47;;;;;;;;;68.50;52.50;;;;;6.09;57.26;102446.97;5030524;28;49812;-66
2022/03/01 04:48:12;;;;;;;;;73.00;54.50;;;;;6.24;56.70;102460.09;5030349;28;49702;-66
2022/03/01 04:50:38;;;;;;;;;74.00;58.00;;;;;6.32;56.73;102478.06;5029963;28;49859;-67
2022/03/01 04:53:03;;;;;;;;;66.75;54.00;;;;;6.26;56.48;102461.09;5029899;28;50032;-66
2022/03/01 04:55:29;;;;;;;;;73.00;57.25;;;;;6.41;56.57;102472.53;5030064;28;49785;-67
2022/03/01 04:57:54;;;;;;;;;65.25;53.50;;;;;6.45;56.78;102474.53;5030464;28;49881;-67
2022/03/01 05:00:21;;;;;;;;;71.50;55.50;;;;;6.25;56.69;102430.63;5030119;28;50673;-67
2022/03/01 05:02:47;;;;;;;;;63.25;53.25;;;;;6.46;56.22;102478.03;5030119;28;50094;-66
2022/03/01 05:05:13;;;;;;;;;72.25;53.75;;;;;6.46;56.14;102478.94;5030156;28;49880;-67
2022/03/01 05:07:40;;;;;;;;;71.00;57.75;;;;;6.34;56.08;102449.47;5029834;28;49997;-67
2022/03/01 05:10:07;;;;;;;;;68.75;55.50;;;;;6.51;56.66;102480.16;5029531;28;50737;-66
2022/03/01 05:12:40;;;;;;;;;66.50;54.50;;;;;6.52;56.55;102474.13;5029171;28;49728;-66
2022/03/01 05:15:06;;;;;;;;;69.25;56.50;;;;;6.53;56.93;102469.81;5027840;28;50038;-67
2022/03/01 05:17:31;;;;;;;;;70.50;54.00;;;;;6.51;56.75;102468.81;5030099;28;49583;-66
2022/03/01 05:19:56;;;;;;;;;71.00;54.67;;;;;6.50;56.30;102465.31;5029638;28;50481;-67
2022/03/01 05:22:21;;;;;;;;;66.50;54.00;;;;;6.45;56.46;102471.03;5028241;28;53219;-66
2022/03/01 05:24:47;;;;;;;;;70.25;55.50;;;;;6.48;57.06;102464.31;5025656;28;49730;-68
2022/03/01 05:27:12;;;;;;;;;65.50;52.75;;;;;6.39;56.36;102450.69;5029917;28;49716;-67
2022/03/01 05:29:37;;;;;;;;;67.25;52.00;;;;;6.56;56.21;102477.81;5027415;28;50900;-67
2022/03/01 05:32:03;;;;;;;;;66.33;55.00;;;;;6.28;56.73;102418.69;5031726;28;49966;-67
2022/03/01 05:34:28;;;;;;;;;71.25;54.75;;;;;6.63;56.57;102471.31;5026418;28;50148;-66
2022/03/01 05:36:54;;;;;;;;;64.75;51.75;;;;;6.10;56.40;102375.78;5032623;28;50038;-67
2022/03/01 05:39:19;;;;;;;;;70.50;56.25;;;;;6.64;56.40;102466.19;5031346;28;49739;-67
2022/03/01 05:41:44;;;;;;;;;70.00;57.00;;;;;6.49;56.23;102439.13;5027577;28;49773;-67
2022/03/01 05:44:10;;;;;;;;;69.50;53.25;;;;;6.56;56.01;102460.50;5032814;28;49975;-67
2022/03/01 05:46:35;;;;;;;;;69.75;53.75;;;;;6.63;55.88;102466.09;5031580;28;50051;-67
2022/03/01 05:49:00;;;;;;;;;81.67;59.33;;;;;6.51;56.20;102441.03;5032583;28;49623;-67
2022/03/01 05:51:26;;;;;;;;;71.33;57.33;;;;;6.65;56.05;102462.75;5029225;28;50229;-66
2022/03/01 05:53:53;;;;;;;;;72.50;55.25;;;;;6.60;56.40;102446.81;5028749;28;49836;-67
2022/03/01 05:56:18;;;;;;;;;71.00;53.75;;;;;6.72;56.10;102466.66;5023954;28;49876;-67
2022/03/01 05:58:43;;;;;;;;;65.00;52.00;;;;;6.15;56.11;102345.66;5030699;28;50775;-66
2022/03/01 06:01:09;;;;;;;;;64.00;52.00;;;;;6.80;55.54;102462.84;5028989;28;49760;-66
2022/03/01 06:03:34;;;;;;;;;57.50;44.75;;;;;6.69;55.81;102446.50;5032645;28;49706;-66
2022/03/01 06:05:59;;;;;;;;;70.50;54.75;;;;;6.70;55.75;102440.47;5032212;28;50053;-66
2022/03/01 06:08:25;;;;;;;;;62.75;51.75;;;;;6.83;55.75;102468.25;5032450;28;50583;-67
2022/03/01 06:10:50;;;;;;;;;69.33;55.67;;;;;6.81;55.84;102465.53;5032356;28;49765;-67
2022/03/01 06:13:16;;;;;;;;;75.75;57.00;;;;;6.76;55.61;102447.81;5028412;28;49769;-66
2022/03/01 06:15:41;;;;;;;;;71.00;56.33;;;;;6.52;56.29;102400.19;5031711;28;49716;-66
2022/03/01 06:18:06;;;;;;;;;70.00;55.00;;;;;6.89;55.55;102461.72;5027230;28;49803;-65
2022/03/01 06:20:32;;;;;;;;;62.00;50.25;;;;;6.97;55.23;102480.47;5032564;28;49993;-64
2022/03/01 06:22:57;;;;;;;;;75.33;59.67;;;;;6.95;54.82;102482.09;5031848;28;49719;-67
2022/03/01 06:25:23;;;;;;;;;72.25;57.00;;;;;6.89;55.38;102471.25;5028004;28;50214;-67
2022/03/01 06:27:51;;;;;;;;;74.75;55.00;;;;;6.69;55.35;102432.56;5027535;28;50540;-67
2022/03/01 06:30:17;;;;;;;;;78.33;56.33;;;;;7.07;55.40;102498.53;5029268;28;49812;-67
2022/03/01 06:32:42;;;;;;;;;75.50;58.25;;;;;7.10;55.14;102496.09;5026699;28;50017;-66
2022/03/01 06:35:08;;;;;;;;;70.67;56.67;;;;;7.13;55.38;102487.53;5032259;28;49938;-66
2022/03/01 06:37:34;;;;;;;;;74.75;56.75;;;;;6.96;55.45;102459.50;5030404;28;49752;-66
2022/03/01 06:40:00;;;;;;;;;78.33;57.33;;;;;7.04;54.51;102476.53;5029498;28;50156;-67
2022/03/01 06:42:26;;;;;;;;;66.75;50.50;;;;;7.22;55.30;102495.94;5032031;28;49768;-66
2022/03/01 06:44:51;;;;;;;;;72.75;55.00;;;;;7.28;54.71;102487.59;5029350;28;49796;-66
2022/03/01 06:47:18;;;;;;;;;65.50;51.25;;;;;7.32;55.04;102494.81;5028154;28;49821;-66
2022/03/01 06:49:43;;;;;;;;;63.50;51.00;;;;;7.26;54.91;102490.13;5031137;28;49964;-66
2022/03/01 06:52:09;;;;;;;;;72.75;58.50;;;;;7.27;55.23;102499.75;5032034;28;50121;-67
2022/03/01 06:54:34;;;;;;;;;76.75;57.50;;;;;7.00;54.72;102453.66;5014059;28;49892;-67
2022/03/01 06:57:00;;;;;;;;;73.00;56.25;;;;;7.24;55.27;102486.53;5031682;28;49896;-67
2022/03/01 06:59:26;;;;;;;;;74.25;58.50;;;;;7.37;54.93;102496.00;5031834;28;49607;-66
2022/03/01 07:01:52;;;;;;;;;74.25;60.00;;;;;7.34;54.41;102501.94;5031875;28;49666;-66
2022/03/01 07:04:17;;;;;;;;;73.75;56.50;;;;;7.33;54.57;102501.81;5032009;28;50019;-67
2022/03/01 07:06:43;;;;;;;;;74.67;56.33;;;;;7.30;54.55;102493.81;5031069;28;50146;-67
2022/03/01 07:09:09;;;;;;;;;83.33;62.33;;;;;7.41;54.50;102511.03;5031841;28;49687;-67
2022/03/01 07:11:35;;;;;;;;;77.33;59.33;;;;;6.92;54.29;102427.06;5032071;28;49879;-66
2022/03/01 07:14:00;;;;;;;;;81.00;61.67;;;;;7.28;54.53;102483.28;5031779;28;49828;-67
2022/03/01 07:16:26;;;;;;;;;75.00;59.33;;;;;7.48;54.36;102518.47;5031485;28;49712;-66
2022/03/01 07:18:53;;;;;;;;;80.00;63.00;;;;;7.27;54.22;102485.78;5031514;28;49615;-66
2022/03/01 07:21:18;;;;;;;;;77.67;57.00;;;;;7.48;54.83;102515.84;5034564;28;49788;-66
2022/03/01 07:23:43;;;;;;;;;72.50;54.25;;;;;7.53;54.10;102519.66;5031672;28;49870;-66
2022/03/01 07:26:09;;;;;;;;;78.25;57.50;;;;;7.57;54.68;102510.28;5031442;28;50623;-66
2022/03/01 07:28:34;;;;;;;;;68.75;55.00;;;;;7.42;54.30;102481.50;5027361;28;49713;-67
2022/03/01 07:31:00;;;;;;;;;77.00;57.25;;;;;7.61;53.93;102507.94;5031335;28;49801;-67
2022/03/01 07:33:25;;;;;;;;;67.50;54.75;;;;;7.65;54.53;102509.03;5024682;28;49733;-70
2022/03/01 07:35:51;;;;;;;;;70.75;55.50;;;;;7.33;53.99;102452.19;5025843;28;50888;-76
2022/03/01 07:38:16;;;;;;;;;65.67;54.67;;;;;7.69;54.55;102518.84;5027501;28;49862;-68
2022/03/01 07:40:41;;;;;;;;;74.50;56.50;;;;;7.15;54.12;102425.88;5031375;28;49793;-67
2022/03/01 07:43:07;;;;;;;;;69.50;54.25;;;;;7.65;53.45;102503.81;5031177;28;49866;-68
2022/03/01 07:45:33;;;;;;;;;72.00;54.00;;;;;7.52;54.16;102464.66;5031079;28;50265;-68
2022/03/01 07:48:00;;;;;;;;;65.75;53.50;;;;;7.76;53.53;102507.97;5028316;28;49926;-68
2022/03/01 07:50:26;;;;;;;;;70.50;56.75;;;;;7.79;52.95;102502.91;5029374;28;49685;-68
2022/03/01 07:52:52;;;;;;;;;71.25;55.50;;;;;7.82;52.50;102504.81;5030239;28;50048;-68
2022/03/01 07:55:17;;;;;;;;;73.50;56.25;;;;;7.88;53.24;102506.06;5030273;28;51292;-67
2022/03/01 07:57:43;;;;;;;;;66.00;53.75;;;;;7.76;53.24;102468.75;5031003;28;50009;-67
2022/03/01 08:00:09;;;;;;;;;71.50;56.50;;;;;8.08;53.21;102502.00;5031185;28;49832;-67
2022/03/01 08:02:36;;;;;;;;;76.50;56.75;;;;;8.00;52.84;102472.78;5029821;28;50252;-66
2022/03/01 08:05:03;;;;;;;;;74.75;55.75;;;;;7.91;52.82;102451.38;5030770;28;49689;-66
2022/03/01 08:07:28;;;;;;;;;65.50;53.75;;;;;8.21;53.37;102485.34;5030218;28;50017;-67
2022/03/01 08:09:54;;;;;;;;;78.50;56.25;;;;;8.11;52.15;102468.22;5030793;28;49772;-66
2022/03/01 08:12:19;;;;;;;;;68.75;54.75;;;;;8.46;51.79;102509.50;5031025;28;49910;-66
2022/03/01 08:14:44;;;;;;;;;73.75;57.50;;;;;8.13;51.64;102442.13;5030394;28;52963;-65
2022/03/01 08:17:10;;;;;;;;;69.00;54.75;;;;;8.07;51.25;102423.47;5030786;28;49984;-66
2022/03/01 08:19:35;;;;;;;;;69.50;53.25;;;;;8.65;50.94;102515.78;5031014;28;49995;-66
2022/03/01 08:22:02;;;;;;;;;70.00;55.50;;;;;8.56;51.59;102479.50;5030811;28;49852;-70
2022/03/01 08:24:28;;;;;;;;;69.50;55.25;;;;;8.68;51.70;102505.47;5030544;28;50007;-69
2022/03/01 08:26:54;;;;;;;;;70.25;53.75;;;;;8.59;51.82;102496.31;5032317;28;49872;-72
2022/03/01 08:29:20;;;;;;;;;73.50;58.00;;;;;8.68;51.59;102503.75;5027306;28;49701;-67
2022/03/01 08:31:46;;;;;;;;;61.00;49.50;;;;;8.57;50.85;102481.31;5029282;28;50141;-65
2022/03/01 08:34:13;;;;;;;;;68.25;55.00;;;;;8.77;51.05;102499.03;5041621;28;49866;-71
2022/03/01 08:36:39;;;;;;;;;69.25;53.75;;;;;8.86;51.21;102496.03;5021475;28;49649;-67
2022/03/01 08:39:05;;;;;;;;;73.75;59.00;;;;;8.78;50.18;102515.63;5038997;28;49614;-68
2022/03/01 08:41:31;;;;;;;;;71.75;56.00;;;;;8.74;50.09;102505.81;5033844;28;49772;-62
2022/03/01 08:43:57;;;;;;;;;69.75;55.00;;;;;8.87;50.43;102509.19;5035861;28;49629;-67
2022/03/01 08:46:23;;;;;;;;;71.25;55.50;;;;;8.96;50.73;102479.09;5030263;28;50016;-66
2022/03/01 08:48:51;;;;;;;;;69.50;55.50;;;;;9.17;50.63;102514.34;5028640;28;49782;-66
2022/03/01 08:51:17;;;;;;;;;72.00;56.75;;;;;9.20;49.69;102516.22;5029881;28;49738;-64
2022/03/01 08:53:42;;;;;;;;;69.50;53.25;;;;;9.20;49.87;102500.50;5028512;28;51389;-65
2022/03/01 08:56:08;;;;;;;;;68.00;55.00;;;;;9.35;49.33;102514.41;5030197;28;49713;-66
2022/03/01 08:58:33;;;;;;;;;74.00;57.25;;;;;9.25;49.08;102491.16;5030320;28;49873;-66
2022/03/01 09:00:59;;;;;;;;;64.50;53.00;;;;;9.19;49.73;102457.69;5029657;28;49933;-67
2022/03/01 09:03:25;;;;;;;;;73.00;54.75;;;;;8.98;48.70;102441.72;5029721;28;50194;-72
2022/03/01 09:05:51;;;;;;;;;70.50;55.75;;;;;9.45;49.08;102487.88;5029884;28;49788;-67
2022/03/01 09:08:17;;;;;;;;;64.50;52.75;;;;;9.68;48.89;102510.06;5029833;28;49630;-66
2022/03/01 09:10:42;;;;;;;;;66.25;54.25;;;;;9.63;48.46;102494.06;5030288;28;49980;-66
2022/03/01 09:13:08;;;;;;;;;67.50;53.75;;;;;9.78;48.58;102509.72;5029877;28;49932;-71
2022/03/01 09:15:34;;;;;;;;;66.25;53.00;;;;;9.64;48.77;102472.28;5012041;28;50085;-70
2022/03/01 09:18:01;;;;;;;;;69.25;53.75;;;;;9.55;48.17;102429.84;5029964;28;49968;-72
2022/03/01 09:20:27;;;;;;;;;66.50;51.75;;;;;10.00;47.70;102502.13;5028612;28;50308;-73
2022/03/01 09:22:56;;;;;;;;;69.00;53.25;;;;;10.10;47.63;102498.22;5029189;28;50527;-70
2022/03/01 09:25:22;;;;;;;;;66.75;53.50;;;;;9.95;46.74;102468.63;5029583;28;49765;-73
2022/03/01 09:27:47;;;;;;;;;60.75;49.50;;;;;10.16;47.14;102495.03;5010644;28;50165;-73
2022/03/01 09:30:13;;;;;;;;;67.75;52.75;;;;;9.95;46.61;102453.78;5030009;28;49878;-67
2022/03/01 09:32:40;;;;;;;;;61.50;49.25;;;;;10.26;47.06;102497.31;5031435;28;49884;-67
2022/03/01 09:35:06;;;;;;;;;59.75;49.00;;;;;9.80;46.46;102412.75;5029406;28;50039;-68
2022/03/01 09:37:32;;;;;;;;;62.75;49.75;;;;;10.26;46.00;102487.72;5026460;28;50312;-72
2022/03/01 09:40:04;;;;;;;;;67.75;53.25;;;;;10.48;46.37;102496.66;5031207;28;50060;-74
2022/03/01 09:42:31;;;;;;;;;63.00;49.00;;;;;10.55;45.83;102485.63;5030372;28;50563;-68
2022/03/01 09:44:58;;;;;;;;;63.75;51.25;;;;;10.73;45.65;102506.63;5029782;28;49749;-67
2022/03/01 09:47:23;;;;;;;;;70.25;50.00;;;;;10.71;45.65;102472.41;5035902;28;49686;-67
2022/03/01 09:49:48;;;;;;;;;73.50;54.00;;;;;11.15;45.02;102507.72;5035692;28;50039;-65
2022/03/01 09:52:15;;;;;;;;;66.25;53.50;;;;;11.21;45.26;102462.44;5037806;28;50599;-73
2022/03/01 09:54:41;;;;;;;;;67.25;53.00;;;;;11.40;44.11;102458.06;5032238;28;49716;-64
2022/03/01 09:57:07;;;;;;;;;41.75;38.00;;;;;11.91;43.94;102500.66;5032567;28;49993;-63
2022/03/01 09:59:32;;;;;;;;;63.25;50.25;;;;;12.20;44.05;102504.50;5034564;28;49726;-67
2022/03/01 10:01:58;;;;;;;;;59.00;42.50;;;;;12.44;43.33;102496.72;5030802;28;50671;-64
2022/03/01 10:04:25;;;;;;;;;62.25;47.25;;;;;12.59;41.54;102501.72;5034571;28;49670;-62
2022/03/01 10:06:51;;;;;;;;;57.75;45.25;;;;;12.17;40.68;102414.00;5033417;28;49701;-63
2022/03/01 10:09:19;;;;;;;;;52.50;44.25;;;;;12.70;41.13;102489.88;5028702;28;49699;-63
2022/03/01 10:11:46;;;;;;;;;55.50;42.00;;;;;12.77;40.21;102493.66;5033348;28;49888;-65
2022/03/01 10:14:11;;;;;;;;;60.75;46.00;;;;;12.91;40.99;102497.72;5038549;28;49583;-65
2022/03/01 10:16:42;;;;;;;;;58.25;45.25;;;;;13.01;41.28;102476.13;5035398;28;49563;-63
2022/03/01 10:19:18;;;;;;;;;51.50;43.50;;;;;13.26;41.38;102475.34;5046298;28;49587;-63
2022/03/01 10:21:59;;;;;;;;;53.50;42.25;;;;;13.51;40.00;102479.81;5044393;28;49784;-63
2022/03/01 10:24:25;;;;;;;;;61.50;47.50;;;;;13.38;39.54;102451.16;5027562;28;49875;-66
2022/03/01 10:26:56;;;;;;;;;58.75;47.50;;;;;13.42;38.80;102443.44;5036460;28;49760;-65
2022/03/01 10:29:26;;;;;;;;;58.50;48.00;;;;;13.80;39.16;102490.47;5033491;28;49554;-66
2022/03/01 10:31:52;;;;;;;;;59.25;48.00;;;;;13.70;38.69;102462.84;5038560;28;50171;-70
2022/03/01 10:34:18;;;;;;;;;32.50;29.25;;;;;13.86;39.12;102490.69;5043696;28;50274;-69
2022/03/01 10:36:47;;;;;;;;;59.50;47.75;;;;;13.60;39.05;102439.63;5014899;28;50294;-66
2022/03/01 10:39:25;;;;;;;;;55.50;43.50;;;;;13.74;39.34;102475.34;5018865;28;50421;-67
2022/03/01 10:41:51;;;;;;;;;57.25;46.50;;;;;13.26;39.57;102413.81;5036001;28;50274;-67
2022/03/01 10:44:19;;;;;;;;;58.25;48.25;;;;;13.64;38.97;102478.50;5050277;28;49508;-71
2022/03/01 10:46:51;;;;;;;;;58.00;47.25;;;;;13.56;39.02;102474.69;5040084;28;49614;-70
2022/03/01 10:49:21;;;;;;;;;61.25;49.00;;;;;13.61;39.61;102471.38;5037318;28;49889;-72
2022/03/01 10:51:50;;;;;;;;;52.00;43.50;;;;;13.71;39.47;102468.22;5030409;28;50822;-76
2022/03/01 10:54:32;;;;;;;;;61.25;50.25;;;;;13.83;39.41;102462.47;5033145;28;49971;-72
2022/03/01 10:56:59;;;;;;;;;57.50;45.25;;;;;14.04;38.64;102470.22;5044646;28;49570;-70
2022/03/01 10:59:28;;;;;;;;;59.00;49.00;;;;;14.04;38.24;102451.72;5047561;28;49457;-70
2022/03/01 11:01:56;;;;;;;;;64.00;50.25;;;;;13.64;38.28;102373.84;5049231;28;49871;-69
2022/03/01 11:04:22;;;;;;;;;59.50;49.00;;;;;12.80;38.44;102236.38;5043637;28;49689;-68
2022/03/01 11:06:49;;;;;;;;;49.75;40.25;;;;;12.95;38.71;102251.84;5021173;28;49924;-69
2022/03/01 11:09:15;;;;;;;;;52.00;44.75;;;;;13.81;39.00;102384.06;5049110;28;49638;-68
2022/03/01 11:11:42;;;;;;;;;55.25;43.25;;;;;13.29;38.48;102282.94;5049128;28;50221;-66